Time;durP1;ratioP1;P1;durP2;ratioP2;P2;SDS_P1;SDS_P2;PMS_P1;PMS_P2;Temp;Humidity;BMP_temperature;BMP_pressure;BME280_temperature;BME280_humidity;BME280_pressure;Samples;Min_cycle;Max_cycle;Signal;HPM_P1;HPM_P2
2022/08/29 00:00:59;;;;;;;24.10;14.18;;;15.40;99.90;;;;;;5014264;28;20026;-68
2022/08/29 00:03:25;;;;;;;29.40;16.65;;;15.40;99.90;;;;;;5014150;28;20037;-68
2022/08/29 00:05:51;;;;;;;23.30;13.90;;;15.40;99.90;;;;;;5014124;28;20029;-68
2022/08/29 00:08:17;;;;;;;29.30;15.32;;;15.30;99.90;;;;;;5012788;28;20033;-68
2022/08/29 00:10:43;;;;;;;28.00;15.45;;;15.30;99.90;;;;;;5014561;28;20022;-68
2022/08/29 00:13:10;;;;;;;23.83;15.02;;;15.30;99.90;;;;;;5014268;28;20064;-68
2022/08/29 00:15:36;;;;;;;27.65;15.90;;;15.30;99.90;;;;;;5013995;28;20030;-68
2022/08/29 00:18:02;;;;;;;19.85;14.23;;;15.30;99.90;;;;;;5013804;28;20106;-68
2022/08/29 00:20:30;;;;;;;34.72;15.85;;;15.30;99.90;;;;;;5013883;28;20052;-68
2022/08/29 00:22:56;;;;;;;23.25;14.80;;;15.20;99.90;;;;;;5013912;28;20053;-68
2022/08/29 00:25:22;;;;;;;38.95;16.15;;;15.20;99.90;;;;;;5012638;28;20026;-68
2022/08/29 00:27:48;;;;;;;20.27;14.43;;;15.30;99.90;;;;;;5013709;28;20037;-68
2022/08/29 00:30:15;;;;;;;24.90;17.20;;;15.30;99.90;;;;;;5014321;28;20026;-68
2022/08/29 00:32:41;;;;;;;29.38;16.98;;;15.50;99.90;;;;;;5013751;28;20093;-68
2022/08/29 00:35:16;;;;;;;33.30;15.52;;;15.60;99.90;;;;;;5013789;28;20057;-68
2022/08/29 00:37:42;;;;;;;21.15;15.13;;;15.60;99.90;;;;;;5013568;28;20030;-68
2022/08/29 00:40:12;;;;;;;26.25;15.38;;;15.70;99.90;;;;;;5013643;28;20101;-68
2022/08/29 00:42:38;;;;;;;26.15;15.32;;;15.60;99.90;;;;;;5013685;28;20075;-68
2022/08/29 00:45:06;;;;;;;25.45;15.23;;;15.60;99.90;;;;;;5013637;28;20421;-68
2022/08/29 00:47:37;;;;;;;26.30;14.25;;;15.50;99.90;;;;;;5013917;28;20390;-68
2022/08/29 00:50:07;;;;;;;26.90;13.27;;;15.40;99.90;;;;;;5011431;28;20390;-69
2022/08/29 00:52:39;;;;;;;31.23;13.93;;;15.40;99.90;;;;;;5012991;28;20034;-68
2022/08/29 00:55:10;;;;;;;17.58;12.43;;;15.50;99.90;;;;;;5011695;28;20480;-68
2022/08/29 00:57:41;;;;;;;25.30;12.18;;;15.50;99.90;;;;;;5012867;28;20073;-68
2022/08/29 01:00:08;;;;;;;19.75;12.75;;;15.40;99.90;;;;;;5013739;28;20033;-68
2022/08/29 01:02:35;;;;;;;23.90;13.25;;;15.40;99.90;;;;;;5012623;28;20367;-68
2022/08/29 01:05:01;;;;;;;20.98;13.43;;;15.40;99.90;;;;;;5013428;28;20022;-68
2022/08/29 01:07:27;;;;;;;26.58;12.43;;;15.30;99.90;;;;;;5014301;28;20029;-68
2022/08/29 01:09:53;;;;;;;24.73;12.38;;;15.20;99.90;;;;;;5017878;28;20109;-68
2022/08/29 01:12:20;;;;;;;25.50;12.82;;;15.10;99.90;;;;;;5017291;28;20113;-68
2022/08/29 01:14:50;;;;;;;20.42;12.52;;;15.10;99.90;;;;;;5017700;28;20036;-68
2022/08/29 01:17:20;;;;;;;17.83;11.35;;;15.00;99.90;;;;;;5018472;28;20121;-68
2022/08/29 01:19:55;;;;;;;19.67;11.70;;;14.90;99.90;;;;;;5018193;28;20105;-68
2022/08/29 01:22:46;;;;;;;20.30;12.05;;;14.90;99.90;;;;;;5017387;28;20112;-68
2022/08/29 01:25:17;;;;;;;30.15;13.27;;;14.80;99.90;;;;;;5017092;28;20022;-68
2022/08/29 01:27:46;;;;;;;20.35;11.95;;;14.70;99.90;;;;;;5017147;28;20037;-68
2022/08/29 01:30:14;;;;;;;17.98;12.48;;;14.70;99.90;;;;;;5016960;28;20072;-68
2022/08/29 01:32:39;;;;;;;15.68;11.68;;;14.70;99.90;;;;;;5016896;28;20469;-68
2022/08/29 01:35:07;;;;;;;16.00;10.88;;;14.70;99.90;;;;;;5016898;28;20033;-68
2022/08/29 01:37:35;;;;;;;25.83;11.63;;;14.60;99.90;;;;;;5016685;28;20022;-68
2022/08/29 01:40:01;;;;;;;17.00;10.77;;;14.60;99.90;;;;;;5016798;28;20051;-68
2022/08/29 01:42:27;;;;;;;19.02;10.20;;;14.50;99.90;;;;;;5016799;28;20026;-68
2022/08/29 01:44:58;;;;;;;18.13;10.55;;;14.40;99.90;;;;;;5017305;28;20028;-68
2022/08/29 01:47:30;;;;;;;16.52;9.60;;;14.40;99.90;;;;;;5016855;28;20033;-68
2022/08/29 01:49:56;;;;;;;20.90;10.25;;;14.20;99.90;;;;;;5016925;28;20029;-68
2022/08/29 01:52:22;;;;;;;13.35;8.73;;;14.20;99.90;;;;;;5016585;28;20030;-68
2022/08/29 01:54:48;;;;;;;15.00;8.82;;;14.10;99.90;;;;;;5016507;28;20087;-68
2022/08/29 01:57:15;;;;;;;11.50;7.80;;;14.10;99.90;;;;;;5050696;22;20131;-67
2022/08/29 01:59:41;;;;;;;18.55;9.35;;;13.90;99.90;;;;;;5076290;28;20036;-67
2022/08/29 02:02:15;;;;;;;13.68;9.02;;;13.90;99.90;;;;;;5076075;28;20051;-68
2022/08/29 02:04:41;;;;;;;11.27;8.65;;;14.00;99.90;;;;;;5076392;28;20107;-69
2022/08/29 02:07:06;;;;;;;20.75;9.90;;;14.00;99.90;;;;;;5076234;28;20174;-69
2022/08/29 02:09:32;;;;;;;20.20;9.57;;;14.00;99.90;;;;;;5076032;28;20107;-69
2022/08/29 02:12:01;;;;;;;17.40;9.18;;;14.00;99.90;;;;;;5075939;28;20028;-68
2022/08/29 02:14:28;;;;;;;21.08;9.95;;;13.90;99.90;;;;;;5075866;28;20460;-67
2022/08/29 02:16:54;;;;;;;15.38;9.15;;;13.80;99.90;;;;;;5076013;28;20028;-69
2022/08/29 02:19:20;;;;;;;12.70;9.25;;;13.80;99.90;;;;;;5074640;28;20143;-69
2022/08/29 02:21:46;;;;;;;12.93;9.65;;;13.80;99.90;;;;;;5076027;28;20024;-69
2022/08/29 02:24:12;;;;;;;15.30;9.57;;;13.70;99.90;;;;;;5075667;28;20389;-67
2022/08/29 02:26:38;;;;;;;16.73;10.25;;;13.70;99.90;;;;;;5075589;28;20058;-67
2022/08/29 02:29:04;;;;;;;13.52;9.88;;;13.70;99.90;;;;;;5075839;28;20021;-69
2022/08/29 02:31:29;;;;;;;15.85;10.57;;;13.70;99.90;;;;;;5075889;28;20070;-68
2022/08/29 02:33:55;;;;;;;13.35;8.82;;;13.60;99.90;;;;;;5075504;28;20024;-67
2022/08/29 02:36:22;;;;;;;21.92;9.63;;;13.50;99.90;;;;;;5075481;28;20460;-67
2022/08/29 02:38:47;;;;;;;18.60;9.90;;;13.30;99.90;;;;;;5075329;28;20047;-67
2022/08/29 02:41:14;;;;;;;10.52;8.93;;;13.30;99.90;;;;;;5075392;28;20021;-67
2022/08/29 02:43:40;;;;;;;12.18;8.30;;;13.30;99.90;;;;;;5075314;28;20025;-67
2022/08/29 02:46:06;;;;;;;18.63;8.63;;;13.30;99.90;;;;;;5075285;28;20477;-69
2022/08/29 02:48:32;;;;;;;16.92;8.95;;;13.20;99.90;;;;;;5075248;28;20056;-69
2022/08/29 02:50:58;;;;;;;15.63;8.85;;;13.20;99.90;;;;;;5075182;28;20074;-69
2022/08/29 02:53:28;;;;;;;15.73;9.38;;;13.30;99.90;;;;;;5075391;28;20024;-67
2022/08/29 02:55:54;;;;;;;10.30;8.57;;;13.20;99.90;;;;;;5075216;28;20033;-68
2022/08/29 02:58:22;;;;;;;13.45;8.68;;;13.10;99.90;;;;;;5074985;28;20035;-69
2022/08/29 03:00:48;;;;;;;24.58;10.25;;;13.00;99.90;;;;;;5075266;28;20029;-68
2022/08/29 03:03:13;;;;;;;14.23;8.55;;;13.00;99.90;;;;;;5075264;28;20520;-67
2022/08/29 03:05:40;;;;;;;17.25;9.68;;;13.00;99.90;;;;;;5074865;28;20365;-68
2022/08/29 03:08:09;;;;;;;15.95;9.38;;;12.90;99.90;;;;;;5074819;28;20032;-67
2022/08/29 03:10:35;;;;;;;17.27;10.73;;;12.90;99.90;;;;;;5074875;28;20051;-69
2022/08/29 03:13:01;;;;;;;17.65;8.88;;;12.90;99.90;;;;;;5074953;28;20468;-68
2022/08/29 03:15:26;;;;;;;14.48;9.80;;;12.90;99.90;;;;;;5074759;28;20024;-68
2022/08/29 03:17:53;;;;;;;15.52;9.65;;;13.00;99.90;;;;;;5073358;28;20029;-68
2022/08/29 03:20:20;;;;;;;16.13;9.10;;;12.90;99.90;;;;;;5074816;28;20021;-69
2022/08/29 03:22:46;;;;;;;20.17;10.05;;;12.90;99.90;;;;;;5074837;28;20460;-69
2022/08/29 03:25:13;;;;;;;11.07;9.50;;;12.90;99.90;;;;;;5074477;28;20031;-69
2022/08/29 03:27:38;;;;;;;15.38;10.00;;;13.00;99.90;;;;;;5074302;28;20162;-69
2022/08/29 03:30:09;;;;;;;17.35;10.27;;;13.00;99.90;;;;;;5074057;28;20062;-69
2022/08/29 03:32:34;;;;;;;19.60;10.95;;;13.00;99.90;;;;;;5074333;28;20035;-67
2022/08/29 03:35:00;;;;;;;17.35;10.38;;;13.10;99.90;;;;;;5074297;28;20446;-67
2022/08/29 03:37:26;;;;;;;13.20;9.20;;;13.10;99.90;;;;;;5074382;28;20101;-68
2022/08/29 03:39:53;;;;;;;15.90;8.98;;;13.20;99.90;;;;;;5074755;28;20070;-69
2022/08/29 03:42:19;;;;;;;15.02;9.35;;;13.20;99.90;;;;;;5074020;28;20495;-69
2022/08/29 03:44:44;;;;;;;20.10;10.10;;;13.20;99.90;;;;;;5074398;28;20090;-69
2022/08/29 03:47:10;;;;;;;14.75;9.60;;;13.30;99.90;;;;;;5074189;28;20481;-69
2022/08/29 03:49:36;;;;;;;14.35;9.07;;;13.30;99.90;;;;;;5063213;28;20029;-68
2022/08/29 03:52:03;;;;;;;11.65;8.00;;;13.20;99.90;;;;;;5074020;28;20033;-69
2022/08/29 03:54:29;;;;;;;13.77;8.45;;;13.20;99.90;;;;;;5072800;28;20387;-69
2022/08/29 03:56:55;;;;;;;24.70;9.80;;;13.30;99.90;;;;;;5073569;28;20024;-69
2022/08/29 03:59:21;;;;;;;13.70;7.47;;;13.20;99.90;;;;;;5074106;28;20029;-69
2022/08/29 04:01:47;;;;;;;10.70;8.65;;;13.20;99.90;;;;;;5073775;28;20028;-69
2022/08/29 04:05:05;;;;;;;18.35;8.60;;;13.20;99.90;;;;;;5054624;28;20053;-69
2022/08/29 04:07:00;;;;;;;10.63;7.05;;;13.20;99.90;;;;;;5053635;28;20033;-69
2022/08/29 04:09:26;;;;;;;16.42;7.93;;;13.20;99.90;;;;;;5053794;28;20028;-69
2022/08/29 04:11:52;;;;;;;13.10;6.05;;;13.30;99.90;;;;;;5053902;28;20025;-69
2022/08/29 04:14:19;;;;;;;9.90;7.47;;;13.30;99.90;;;;;;5053600;28;20406;-69
2022/08/29 04:16:48;;;;;;;11.75;6.30;;;13.30;99.90;;;;;;5053454;28;20033;-69
2022/08/29 04:19:18;;;;;;;6.28;5.25;;;13.30;99.90;;;;;;5053831;28;20384;-69
2022/08/29 04:21:44;;;;;;;9.20;6.03;;;13.30;99.90;;;;;;5053571;28;20028;-69
2022/08/29 04:24:11;;;;;;;10.27;4.95;;;13.30;99.90;;;;;;5071596;28;20036;-69
2022/08/29 04:26:39;;;;;;;8.70;5.65;;;13.40;99.90;;;;;;5073724;28;20017;-69
2022/08/29 04:29:07;;;;;;;11.95;5.63;;;13.40;99.90;;;;;;5073422;28;20026;-69
2022/08/29 04:31:35;;;;;;;7.50;5.32;;;13.50;99.90;;;;;;5073679;28;20033;-69
2022/08/29 04:34:01;;;;;;;12.15;6.00;;;13.60;99.90;;;;;;5073315;28;20547;-69
2022/08/29 04:36:27;;;;;;;13.13;6.30;;;13.70;99.90;;;;;;5073305;28;20032;-69
2022/08/29 04:38:53;;;;;;;11.70;6.63;;;13.90;99.90;;;;;;5073571;28;20040;-69
2022/08/29 04:41:20;;;;;;;9.60;6.90;;;14.00;99.90;;;;;;5073630;28;20020;-69
2022/08/29 04:43:46;;;;;;;13.15;6.35;;;14.00;99.90;;;;;;5072884;28;20032;-69
2022/08/29 04:46:13;;;;;;;8.52;5.82;;;14.00;99.90;;;;;;5073323;28;20064;-69
2022/08/29 04:48:39;;;;;;;11.38;7.00;;;14.10;99.90;;;;;;5073473;28;20369;-69
2022/08/29 04:51:05;;;;;;;9.45;5.72;;;14.10;99.90;;;;;;5073496;28;20023;-69
2022/08/29 04:53:31;;;;;;;8.20;5.95;;;14.20;99.90;;;;;;5073186;28;20464;-69
2022/08/29 04:56:00;;;;;;;9.32;5.70;;;14.20;99.90;;;;;;5073724;28;20024;-69
2022/08/29 04:58:27;;;;;;;9.65;5.45;;;14.20;99.90;;;;;;5072925;28;20031;-69
2022/08/29 05:00:53;;;;;;;11.40;5.65;;;14.20;99.90;;;;;;5073118;28;20021;-69
2022/08/29 05:03:20;;;;;;;17.92;5.43;;;14.30;99.90;;;;;;5073629;28;20017;-69
2022/08/29 05:05:56;;;;;;;10.48;4.82;;;14.40;99.90;;;;;;5073041;28;20472;-69
2022/08/29 05:08:22;;;;;;;5.90;4.25;;;14.40;99.90;;;;;;5072828;28;20033;-69
2022/08/29 05:10:48;;;;;;;18.15;5.22;;;14.40;99.90;;;;;;5072547;28;20029;-69
2022/08/29 05:13:14;;;;;;;10.60;4.60;;;14.40;99.90;;;;;;5072977;28;20094;-69
2022/08/29 05:15:40;;;;;;;10.98;3.65;;;14.50;99.90;;;;;;5073271;28;20029;-69
2022/08/29 05:18:05;;;;;;;8.18;3.85;;;14.50;99.90;;;;;;5072676;28;20459;-69
2022/08/29 05:20:31;;;;;;;11.00;3.78;;;14.50;99.90;;;;;;5072877;28;20085;-69
2022/08/29 05:22:57;;;;;;;5.90;4.28;;;14.50;99.90;;;;;;5073155;28;20025;-69
2022/08/29 05:25:22;;;;;;;6.93;3.90;;;14.60;99.90;;;;;;5072952;28;20036;-69
2022/08/29 05:27:48;;;;;;;6.18;3.75;;;14.70;99.90;;;;;;5073108;28;20418;-69
2022/08/29 05:30:16;;;;;;;9.50;3.35;;;14.70;99.90;;;;;;5073112;28;20520;-69
2022/08/29 05:32:42;;;;;;;3.92;3.15;;;14.70;99.90;;;;;;5073091;28;20029;-69
2022/08/29 05:35:08;;;;;;;4.40;3.00;;;14.70;99.90;;;;;;5072804;28;20043;-69
2022/08/29 05:37:34;;;;;;;7.47;3.10;;;14.80;99.90;;;;;;5072592;28;20035;-69
2022/08/29 05:40:00;;;;;;;7.32;2.50;;;14.70;99.90;;;;;;5072902;28;20067;-69
2022/08/29 05:42:26;;;;;;;7.78;3.15;;;14.80;99.90;;;;;;5072999;28;20031;-69
2022/08/29 05:44:52;;;;;;;5.10;2.65;;;14.80;99.90;;;;;;5073041;28;20024;-69
2022/08/29 05:47:19;;;;;;;4.78;2.83;;;14.90;99.90;;;;;;5072861;28;20541;-69
2022/08/29 05:49:46;;;;;;;6.95;2.67;;;14.90;99.90;;;;;;5072707;28;20052;-69
2022/08/29 05:52:15;;;;;;;9.05;2.80;;;14.90;99.90;;;;;;5072912;28;20052;-69
2022/08/29 05:54:41;;;;;;;7.00;2.72;;;15.00;99.90;;;;;;5075277;28;20024;-70
2022/08/29 05:57:09;;;;;;;10.23;2.80;;;15.00;99.90;;;;;;5075902;28;20044;-69
2022/08/29 05:59:35;;;;;;;8.80;2.33;;;15.00;99.90;;;;;;5076450;28;20032;-69
2022/08/29 06:02:01;;;;;;;4.22;2.75;;;15.00;99.90;;;;;;5076310;28;20464;-69
2022/08/29 06:04:26;;;;;;;4.53;2.17;;;15.10;99.90;;;;;;5076097;28;20039;-69
2022/08/29 06:06:52;;;;;;;12.50;3.65;;;15.00;99.90;;;;;;5075929;28;20024;-69
2022/08/29 06:09:18;;;;;;;5.72;2.58;;;15.10;99.90;;;;;;5075797;28;20099;-69
2022/08/29 06:11:48;;;;;;;6.07;2.58;;;15.10;99.90;;;;;;5076466;28;20464;-69
2022/08/29 06:14:14;;;;;;;4.13;2.65;;;15.20;99.90;;;;;;5075991;28;20032;-69
2022/08/29 06:16:40;;;;;;;2.25;2.08;;;15.20;99.90;;;;;;5075806;28;20029;-70
2022/08/29 06:19:06;;;;;;;3.03;2.33;;;15.30;99.90;;;;;;5075742;28;20025;-69
2022/08/29 06:21:31;;;;;;;5.75;2.10;;;15.30;99.90;;;;;;5076037;28;20468;-70
2022/08/29 06:23:57;;;;;;;7.05;2.55;;;15.40;99.90;;;;;;5075672;28;20472;-70
2022/08/29 06:26:23;;;;;;;5.10;2.67;;;15.40;99.90;;;;;;5075657;28;20036;-70
2022/08/29 06:28:49;;;;;;;6.00;2.83;;;15.30;99.90;;;;;;5075237;28;20055;-69
2022/08/29 06:31:25;;;;;;;4.50;2.33;;;15.50;99.90;;;;;;5075465;28;20024;-69
2022/08/29 06:33:52;;;;;;;4.57;1.75;;;15.50;99.90;;;;;;5075779;28;20058;-69
2022/08/29 06:36:19;;;;;;;2.70;2.00;;;15.60;99.90;;;;;;5075695;28;20020;-69
2022/08/29 06:38:45;;;;;;;5.72;2.10;;;15.60;99.90;;;;;;5075360;28;20036;-69
2022/08/29 06:41:13;;;;;;;5.97;2.13;;;15.60;99.90;;;;;;5075405;28;20032;-69
2022/08/29 06:43:39;;;;;;;6.40;1.90;;;15.80;99.90;;;;;;5075301;28;20442;-69
2022/08/29 06:46:05;;;;;;;10.30;2.42;;;15.80;99.90;;;;;;5075850;28;20059;-69
2022/08/29 06:48:31;;;;;;;4.53;1.95;;;15.90;99.90;;;;;;5075133;28;20043;-69
2022/08/29 06:51:00;;;;;;;24.45;2.50;;;15.90;99.90;;;;;;5075371;28;20074;-69
2022/08/29 06:53:27;;;;;;;11.10;2.28;;;16.00;99.90;;;;;;5075413;28;20459;-70
2022/08/29 06:55:53;;;;;;;8.05;3.58;;;16.10;99.90;;;;;;5075012;28;20503;-70
2022/08/29 06:58:19;;;;;;;7.43;1.80;;;16.10;99.90;;;;;;5074759;28;20052;-69
2022/08/29 07:00:44;;;;;;;3.30;1.60;;;16.20;99.90;;;;;;5074993;28;20047;-70
2022/08/29 07:03:10;;;;;;;5.40;1.83;;;16.30;99.90;;;;;;5075196;28;20020;-70
2022/08/29 07:05:36;;;;;;;8.07;1.80;;;16.30;99.90;;;;;;5074074;28;20075;-70
2022/08/29 07:08:02;;;;;;;5.90;1.35;;;16.40;99.90;;;;;;5074763;28;20029;-70
2022/08/29 07:10:27;;;;;;;3.45;1.45;;;16.60;99.90;;;;;;5074688;28;20085;-70
2022/08/29 07:12:53;;;;;;;4.10;1.75;;;16.70;99.90;;;;;;5074712;28;20025;-70
2022/08/29 07:15:21;;;;;;;4.10;1.63;;;16.60;99.90;;;;;;5074693;28;20032;-70
2022/08/29 07:17:47;;;;;;;4.22;1.80;;;16.80;99.90;;;;;;5074434;28;20028;-70
2022/08/29 07:20:15;;;;;;;5.57;1.52;;;16.90;99.90;;;;;;5074850;28;20091;-70
2022/08/29 07:22:41;;;;;;;3.80;1.55;;;17.00;99.90;;;;;;5074878;28;20035;-70
2022/08/29 07:25:09;;;;;;;3.42;1.58;;;17.00;99.90;;;;;;5074487;28;20016;-70
2022/08/29 07:27:34;;;;;;;4.20;1.63;;;17.10;99.90;;;;;;5074707;28;20052;-70
2022/08/29 07:30:01;;;;;;;3.03;1.40;;;17.20;99.90;;;;;;5074419;28;20056;-70
2022/08/29 07:32:28;;;;;;;2.28;1.35;;;17.30;99.90;;;;;;5074701;28;20028;-70
2022/08/29 07:34:53;;;;;;;8.48;2.08;;;17.20;99.90;;;;;;5074389;28;20021;-69
2022/08/29 07:37:19;;;;;;;3.35;1.27;;;17.20;99.90;;;;;;5074204;28;20031;-68
2022/08/29 07:39:44;;;;;;;8.73;1.85;;;17.30;99.90;;;;;;5074826;28;20021;-68
2022/08/29 07:42:10;;;;;;;3.50;1.55;;;17.30;99.90;;;;;;5074265;28;20028;-70
2022/08/29 07:44:36;;;;;;;3.80;1.30;;;17.30;99.90;;;;;;5074195;28;20064;-70
2022/08/29 07:47:02;;;;;;;5.05;1.67;;;17.50;99.90;;;;;;5074101;28;20025;-70
2022/08/29 07:49:31;;;;;;;3.90;1.40;;;17.50;99.90;;;;;;5073869;28;20024;-69
2022/08/29 07:51:56;;;;;;;5.07;1.40;;;17.70;99.90;;;;;;5074023;28;20035;-71
2022/08/29 07:54:22;;;;;;;8.43;1.90;;;17.80;99.90;;;;;;5074118;28;20471;-70
2022/08/29 07:56:50;;;;;;;6.57;1.83;;;17.80;99.90;;;;;;5073788;28;20040;-70
2022/08/29 07:59:17;;;;;;;4.07;1.83;;;18.00;99.90;;;;;;5075739;23;20136;-71
2022/08/29 08:01:42;;;;;;;4.50;1.25;;;18.10;99.90;;;;;;5034010;28;20028;-70
2022/08/29 08:04:09;;;;;;;3.05;1.48;;;18.40;99.90;;;;;;5034473;28;20022;-70
2022/08/29 08:06:36;;;;;;;3.22;1.50;;;18.50;99.90;;;;;;5033946;28;20529;-70
2022/08/29 08:09:03;;;;;;;4.22;1.58;;;18.50;99.90;;;;;;5033825;28;20436;-70
2022/08/29 08:11:29;;;;;;;4.05;1.67;;;18.70;99.90;;;;;;5034022;28;20025;-70
2022/08/29 08:13:56;;;;;;;5.75;1.48;;;18.80;99.90;;;;;;5034095;28;20025;-70
2022/08/29 08:16:24;;;;;;;4.50;1.75;;;18.90;99.90;;;;;;5033519;28;20112;-70
2022/08/29 08:18:50;;;;;;;8.55;1.80;;;18.90;99.90;;;;;;5033105;28;20037;-70
2022/08/29 08:21:16;;;;;;;3.80;1.30;;;19.00;99.90;;;;;;5033929;28;20024;-70
2022/08/29 08:23:42;;;;;;;5.75;1.60;;;19.00;99.90;;;;;;5033633;28;20018;-71
2022/08/29 08:26:09;;;;;;;8.35;2.05;;;19.20;99.90;;;;;;5033794;28;20053;-71
2022/08/29 08:28:35;;;;;;;5.80;1.48;;;19.20;99.90;;;;;;5033547;28;20026;-71
2022/08/29 08:31:04;;;;;;;4.30;1.75;;;19.30;99.90;;;;;;5033561;28;20052;-71
2022/08/29 08:33:30;;;;;;;8.90;2.20;;;19.30;99.90;;;;;;5033463;28;20025;-70
2022/08/29 08:35:56;;;;;;;7.97;2.15;;;19.30;99.90;;;;;;5033587;28;20407;-70
2022/08/29 08:38:21;;;;;;;5.95;1.58;;;19.40;99.90;;;;;;5033880;28;20025;-70
2022/08/29 08:41:11;;;;;;;4.38;1.67;;;19.50;99.90;;;;;;5032113;28;20385;-70
2022/08/29 08:43:46;;;;;;;3.08;1.70;;;19.50;99.90;;;;;;5033723;28;20033;-70
2022/08/29 08:46:12;;;;;;;6.82;1.67;;;19.30;99.90;;;;;;5033444;28;20021;-70
2022/08/29 08:48:39;;;;;;;2.55;1.00;;;19.50;99.90;;;;;;5033348;28;20083;-70
2022/08/29 08:51:25;;;;;;;4.00;1.75;;;20.00;99.90;;;;;;5033567;28;20488;-70
2022/08/29 08:53:55;;;;;;;3.03;1.70;;;20.30;99.90;;;;;;5033237;28;20041;-70
2022/08/29 08:56:30;;;;;;;4.28;1.48;;;20.30;99.90;;;;;;5033631;28;20030;-70
2022/08/29 08:59:12;;;;;;;4.30;1.77;;;20.60;99.90;;;;;;5033158;28;20040;-70
2022/08/29 09:01:57;;;;;;;3.30;1.70;;;20.70;99.90;;;;;;5033358;28;20041;-70
2022/08/29 09:05:00;;;;;;;8.25;2.20;;;20.80;99.90;;;;;;5033492;28;20018;-70
2022/08/29 09:07:51;;;;;;;2.97;1.33;;;21.30;99.90;;;;;;5032246;28;20041;-70
2022/08/29 09:10:17;;;;;;;3.10;1.38;;;21.50;99.90;;;;;;5033260;28;20030;-70
2022/08/29 09:12:59;;;;;;;4.55;1.35;;;21.70;99.90;;;;;;5033449;28;20017;-70
2022/08/29 09:15:33;;;;;;;8.85;1.88;;;21.60;99.90;;;;;;5033177;28;20036;-71
2022/08/29 09:18:04;;;;;;;;;;;21.60;99.90;;;;;;5033794;28;20026;-71
2022/08/29 09:20:36;;;;;;;8.45;1.67;;;21.20;99.90;;;;;;5033160;28;19912;-71
2022/08/29 09:23:09;;;;;;;4.10;1.55;;;21.10;99.90;;;;;;5033546;28;20021;-71
2022/08/29 09:25:35;;;;;;;2.47;1.27;;;21.10;99.90;;;;;;5033663;28;20037;-71
2022/08/29 09:28:03;;;;;;;6.40;1.70;;;21.50;99.90;;;;;;5033298;28;20041;-71
2022/08/29 09:30:32;;;;;;;5.28;1.70;;;21.90;99.90;;;;;;5037696;28;20416;-71
2022/08/29 09:33:08;;;;;;;4.63;1.58;;;22.00;99.90;;;;;;5036880;28;20025;-71
2022/08/29 09:35:36;;;;;;;4.03;1.65;;;22.40;99.90;;;;;;5037236;28;20025;-71
2022/08/29 09:38:22;;;;;;;2.03;1.15;;;22.50;99.90;;;;;;5036524;28;20021;-71
2022/08/29 09:40:50;;;;;;;2.65;1.75;;;22.30;99.90;;;;;;5037112;28;20049;-71
2022/08/29 09:43:37;;;;;;;4.90;1.90;;;22.30;99.90;;;;;;5036967;28;20026;-71
2022/08/29 09:46:06;;;;;;;4.97;1.50;;;21.80;99.90;;;;;;5036994;28;20083;-71
2022/08/29 09:51:48;;;;;;;4.93;1.80;;;21.30;99.90;;;;;;5058352;28;20396;-69
2022/08/29 09:54:25;;;;;;;3.92;1.40;;;20.90;99.90;;;;;;5059266;28;20032;-69
2022/08/29 09:57:09;;;;;;;6.47;1.67;;;21.30;99.90;;;;;;5067545;28;20020;-70
2022/08/29 09:59:41;;;;;;;7.85;1.65;;;21.80;99.90;;;;;;5050627;28;20350;-71
2022/08/29 10:02:43;;;;;;;9.13;1.50;;;22.50;99.90;;;;;;5050668;28;20052;-71
2022/08/29 10:05:26;;;;;;;2.85;1.67;;;23.10;99.90;;;;;;5038904;28;20377;-70
2022/08/29 10:07:52;;;;;;;1.80;0.88;;;23.40;99.90;;;;;;5046853;28;20025;-70
2022/08/29 10:10:17;;;;;;;3.10;1.40;;;24.00;99.90;;;;;;5050490;28;20025;-70
2022/08/29 10:13:02;;;;;;;3.75;1.38;;;24.30;99.90;;;;;;5036631;28;20044;-70
2022/08/29 10:15:44;;;;;;;3.25;1.20;;;23.70;99.90;;;;;;5030778;28;20499;-70
2022/08/29 10:18:29;;;;;;;3.65;1.40;;;23.40;99.90;;;;;;5030532;28;20024;-70
2022/08/29 10:21:12;;;;;;;4.63;1.23;;;23.50;99.90;;;;;;5030700;28;20469;-70
2022/08/29 10:23:57;;;;;;;;;;;23.30;99.90;;;;;;5031304;28;20043;-70
2022/08/29 10:27:06;;;;;;;2.50;1.42;;;23.20;99.90;;;;;;5045015;28;19905;-70
2022/08/29 10:29:37;;;;;;;2.08;1.23;;;23.00;99.90;;;;;;5039682;28;20083;-70
2022/08/29 10:33:29;;;;;;;3.25;1.45;;;22.40;99.90;;;;;;5059320;28;20392;-69
2022/08/29 10:36:10;;;;;;;1.80;1.15;;;21.90;99.90;;;;;;5051501;28;20079;-69
2022/08/29 10:39:00;;;;;;;9.40;1.75;;;21.50;99.90;;;;;;5051181;28;20057;-69
2022/08/29 10:41:43;;;;;;;3.50;1.05;;;21.30;99.90;;;;;;5050583;28;20025;-69
2022/08/29 10:44:33;;;;;;;7.45;1.70;;;22.10;99.90;;;;;;5051070;28;20025;-69
2022/08/29 10:47:36;;;;;;;6.57;1.27;;;22.50;99.90;;;;;;5051032;28;20033;-69
2022/08/29 10:50:39;;;;;;;11.32;1.52;;;22.90;99.90;;;;;;5041288;28;20448;-69
2022/08/29 10:53:30;;;;;;;5.45;1.40;;;23.00;99.90;;;;;;5050423;28;20029;-69
2022/08/29 10:56:07;;;;;;;4.38;1.50;;;23.40;99.90;;;;;;5050125;28;20072;-70
2022/08/29 10:58:48;;;;;;;3.05;1.75;;;23.40;99.90;;;;;;5050645;28;20023;-69
2022/08/29 11:01:26;;;;;;;6.65;1.52;;;23.40;99.90;;;;;;5050558;28;20029;-69
2022/08/29 11:04:16;;;;;;;5.35;1.20;;;24.00;99.90;;;;;;5049928;28;20053;-69
2022/08/29 11:07:10;;;;;;;10.57;1.63;;;23.90;99.90;;;;;;5050689;28;20029;-69
2022/08/29 11:09:49;;;;;;;2.33;1.17;;;24.00;99.90;;;;;;5045918;28;20156;-69
2022/08/29 11:12:35;;;;;;;2.58;1.00;;;23.80;99.90;;;;;;5049639;28;20021;-69
2022/08/29 11:15:32;;;;;;;4.10;1.52;;;24.10;99.90;;;;;;5050158;28;20028;-69
2022/08/29 11:18:08;;;;;;;6.63;1.42;;;24.20;99.90;;;;;;5050159;28;20056;-69
2022/08/29 11:20:41;;;;;;;4.50;1.50;;;24.20;99.90;;;;;;5050478;28;20021;-69
2022/08/29 11:23:41;;;;;;;8.23;2.25;;;23.60;99.90;;;;;;5050468;28;20017;-69
2022/08/29 11:26:42;;;;;;;5.65;1.60;;;23.40;99.90;;;;;;5049508;28;20393;-69
2022/08/29 11:29:19;;;;;;;4.80;1.60;;;22.90;99.90;;;;;;5049907;28;20017;-69
2022/08/29 11:32:21;;;;;;;4.68;1.42;;;23.60;99.90;;;;;;5049731;28;20090;-69
2022/08/29 11:35:08;;;;;;;3.90;1.10;;;24.00;99.90;;;;;;5050103;28;20022;-69
2022/08/29 11:37:37;;;;;;;4.18;1.52;;;24.50;99.90;;;;;;5049863;28;20022;-69
2022/08/29 11:40:02;;;;;;;3.90;1.23;;;24.40;99.90;;;;;;5049073;28;20018;-69
2022/08/29 11:42:33;;;;;;;4.85;1.15;;;23.80;99.90;;;;;;5046611;28;20104;-69
2022/08/29 11:45:00;;;;;;;3.78;1.52;;;23.20;99.90;;;;;;5036351;28;20488;-70
2022/08/29 11:47:34;;;;;;;5.95;1.35;;;23.10;99.90;;;;;;5036205;28;20029;-70
2022/08/29 11:50:27;;;;;;;5.90;1.10;;;23.60;99.90;;;;;;5035682;28;20543;-70
2022/08/29 11:52:58;;;;;;;1.77;0.90;;;23.90;99.90;;;;;;5036236;28;20064;-70
2022/08/29 11:56:04;;;;;;;3.40;1.40;;;24.00;99.90;;;;;;5036028;28;20030;-70
2022/08/29 11:58:32;;;;;;;6.35;1.30;;;24.20;99.90;;;;;;5035744;28;20026;-70
2022/08/29 12:00:59;;;;;;;9.50;1.45;;;25.00;99.90;;;;;;5035484;28;20489;-70
2022/08/29 12:03:33;;;;;;;2.28;1.25;;;25.60;99.90;;;;;;5036006;28;20029;-70
2022/08/29 12:06:18;;;;;;;1.98;0.90;;;25.80;99.90;;;;;;5035886;28;20032;-70
2022/08/29 12:08:52;;;;;;;3.75;1.20;;;26.30;99.90;;;;;;5027246;28;20042;-70
2022/08/29 12:11:18;;;;;;;2.70;1.10;;;26.90;99.90;;;;;;5035666;28;20021;-70
2022/08/29 12:13:47;;;;;;;9.43;1.17;;;27.20;99.90;;;;;;5031987;28;20384;-70
2022/08/29 12:16:18;;;;;;;2.58;1.15;;;27.70;99.90;;;;;;5015897;28;20022;-70
2022/08/29 12:18:48;;;;;;;5.68;1.10;;;27.10;99.90;;;;;;5015826;28;20486;-73
2022/08/29 12:21:43;;;;;;;5.35;1.05;;;26.30;99.90;;;;;;5016198;28;20033;-72
2022/08/29 12:24:28;;;;;;;2.25;0.88;;;25.40;99.90;;;;;;5015899;28;20045;-72
2022/08/29 12:26:55;;;;;;;5.07;1.13;;;26.10;99.90;;;;;;5015343;28;20033;-72
2022/08/29 12:29:33;;;;;;;11.00;1.27;;;27.10;99.90;;;;;;5020352;28;20680;-72
2022/08/29 12:32:22;;;;;;;2.53;0.88;;;26.70;99.90;;;;;;5035433;28;20400;-72
2022/08/29 12:35:02;;;;;;;1.85;1.00;;;25.60;99.90;;;;;;5034778;28;20053;-71
2022/08/29 12:37:59;;;;;;;2.28;0.80;;;25.20;99.90;;;;;;5035349;28;20018;-72
2022/08/29 12:41:02;;;;;;;2.65;0.95;;;25.80;99.90;;;;;;5035591;28;20026;-72
2022/08/29 12:43:35;;;;;;;6.22;1.15;;;26.70;99.90;;;;;;5015008;28;20026;-71
2022/08/29 12:46:02;;;;;;;;;;;27.60;99.90;;;;;;5016186;28;20356;-72
2022/08/29 12:48:34;;;;;;;2.17;0.63;;;27.90;99.90;;;;;;5015445;28;19906;-72
2022/08/29 12:51:01;;;;;;;3.58;0.98;;;28.10;99.90;;;;;;5015836;28;20026;-71
2022/08/29 12:53:33;;;;;;;2.35;0.98;;;27.60;99.90;;;;;;5035427;28;20355;-72
2022/08/29 12:56:17;;;;;;;2.57;0.67;;;26.90;99.90;;;;;;5034919;28;20375;-72
2022/08/29 12:58:52;;;;;;;;;;;26.40;99.90;;;;;;5035739;28;20041;-72
2022/08/29 13:01:29;;;;;;;7.28;1.00;;;26.30;99.90;;;;;;5034975;28;19905;-72
2022/08/29 13:04:13;;;;;;;8.63;1.20;;;26.80;99.90;;;;;;5015154;28;20025;-72
2022/08/29 13:07:00;;;;;;;5.47;1.05;;;27.00;99.90;;;;;;5015071;28;20026;-72